KERV/ERV METAR and TAF weather

Enter ICAO airport designator
Station Type Date Time Source
KERV METAR 2021/05/14 03:35 UTC NOAA

KERV 140335Z AUTO 13004KT 10SM CLR 17/14 A3024 RMK AO2 T01700137


Station Type Date Time Source
KERV Decoded METAR 2021/05/14 03:35 UTC NOAA

Kerrville, Kerrville Municipal Airport/Louis Schreiner Field, TX, United States (KERV) 29-58N 099-05W
May 13, 2021 - 11:35 PM EDT / 2021.05.14 0335 UTC
Wind: from the SE (130 degrees) at 5 MPH (4 KT):0
Visibility: 10 mile(s):0
Sky conditions: clear
Temperature: 62.6 F (17.0 C)
Dew Point: 56.7 F (13.7 C)
Relative Humidity: 80%
Pressure (altimeter): 30.24 in. Hg (1024 hPa)
ob: KERV 140335Z AUTO 13004KT 10SM CLR 17/14 A3024 RMK AO2 T01700137
cycle: 3

Station Type Date Time Source
KERV TAF UTC NOAA

Error!

Example: see airport list